Time;durP1;ratioP1;P1;durP2;ratioP2;P2;SDS_P1;SDS_P2;PMS_P1;PMS_P2;Temp;Humidity;BMP_temperature;BMP_pressure;BME280_temperature;BME280_humidity;BME280_pressure;Samples;Min_cycle;Max_cycle;Signal;HPM_P1;HPM_P2
2022/05/03 00:00:37;;;;;;;7.90;4.80;;;;;;;10.26;41.60;100703.15;117309;1185;24164;-55
2022/05/03 00:03:29;;;;;;;6.00;4.80;;;;;;;10.26;41.58;100701.40;117281;1186;24132;-55
2022/05/03 00:06:29;;;;;;;7.90;5.20;;;;;;;10.24;41.96;100698.60;117434;1186;23541;-55
2022/05/03 00:09:07;;;;;;;6.90;4.50;;;;;;;10.23;41.79;100701.77;117368;1185;21846;-55
2022/05/03 00:11:53;;;;;;;5.80;4.80;;;;;;;10.25;41.83;100700.88;117341;1185;24126;-55
2022/05/03 00:14:42;;;;;;;7.00;4.70;;;;;;;10.23;41.74;100700.02;117471;1186;23451;-48
2022/05/03 00:17:12;;;;;;;6.60;4.40;;;;;;;10.19;41.71;100698.80;117268;1186;23442;-47
2022/05/03 00:19:40;;;;;;;6.20;4.30;;;;;;;10.10;41.67;100693.78;117116;1188;22926;-55
2022/05/03 00:22:08;;;;;;;8.90;4.50;;;;;;;10.03;41.68;100695.91;117112;1188;22303;-47
2022/05/03 00:24:36;;;;;;;7.20;5.10;;;;;;;9.96;41.72;100693.48;117334;1185;23472;-53
2022/05/03 00:27:05;;;;;;;8.20;4.80;;;;;;;9.87;41.58;100694.42;117097;1185;23557;-55
2022/05/03 00:29:33;;;;;;;7.10;4.80;;;;;;;9.80;41.59;100696.02;117234;1185;24113;-47
2022/05/03 00:32:03;;;;;;;7.60;5.10;;;;;;;9.70;41.85;100694.31;117150;1182;24228;-46
2022/05/03 00:34:31;;;;;;;8.10;5.00;;;;;;;9.64;41.67;100692.58;117112;1189;21965;-46
2022/05/03 00:37:00;;;;;;;7.10;4.70;;;;;;;9.55;41.68;100691.02;117331;1186;24170;-46
2022/05/03 00:39:28;;;;;;;7.10;4.80;;;;;;;9.47;41.70;100691.05;117306;1185;23554;-53
2022/05/03 00:41:56;;;;;;;6.10;4.60;;;;;;;9.42;41.84;100690.53;117109;1185;23458;-46
2022/05/03 00:44:55;;;;;;;8.30;5.00;;;;;;;9.40;41.97;100693.34;117267;1185;23458;-45
2022/05/03 00:47:29;;;;;;;7.50;4.70;;;;;;;9.39;42.04;100689.67;117105;1186;23552;-54
2022/05/03 00:50:08;;;;;;;5.90;4.30;;;;;;;9.36;42.04;100684.25;117267;1185;24012;-46
2022/05/03 00:52:45;;;;;;;7.10;4.70;;;;;;;9.40;42.12;100683.54;117303;1185;23777;-46
2022/05/03 00:55:28;;;;;;;6.60;4.40;;;;;;;9.44;42.24;100684.75;117277;1185;24149;-48
2022/05/03 00:58:03;;;;;;;7.00;4.50;;;;;;;9.46;42.21;100690.01;117269;1186;24240;-47
2022/05/03 01:00:32;;;;;;;5.70;4.40;;;;;;;9.46;42.31;100691.05;117435;1185;23515;-48
2022/05/03 01:03:29;;;;;;;6.60;5.00;;;;;;;9.49;42.19;100688.23;117319;1186;23509;-51
2022/05/03 01:06:21;;;;;;;6.80;4.60;;;;;;;9.50;42.31;100686.83;117158;1186;23472;-54
2022/05/03 01:08:59;;;;;;;;;;;;;;;9.49;42.34;100683.67;117288;1185;24248;-47
2022/05/03 01:11:33;;;;;;;5.70;3.80;;;;;;;9.48;42.25;100685.80;117350;1185;22335;-47
2022/05/03 01:14:25;;;;;;;7.00;4.80;;;;;;;9.47;42.43;100689.30;117260;1185;21887;-46
2022/05/03 01:16:59;;;;;;;5.80;4.70;;;;;;;9.49;42.57;100691.21;117148;1180;21855;-47
2022/05/03 01:19:27;;;;;;;6.40;4.80;;;;;;;9.51;42.57;100694.00;117263;1186;24183;-47
2022/05/03 01:22:17;;;;;;;7.10;4.90;;;;;;;9.51;42.64;100695.41;117290;1185;22953;-54
2022/05/03 01:25:10;;;;;;;6.00;4.60;;;;;;;9.46;42.63;100693.16;117211;1186;23484;-46
2022/05/03 01:27:57;;;;;;;8.30;4.90;;;;;;;9.47;42.56;100693.16;117390;1185;23573;-47
2022/05/03 01:30:28;;;;;;;7.00;5.30;;;;;;;9.52;43.09;100691.20;117381;1184;23672;-53
2022/05/03 01:33:02;;;;;;;6.70;5.40;;;;;;;9.62;43.05;100692.77;117081;1186;21884;-53
2022/05/03 01:35:31;;;;;;;5.90;4.80;;;;;;;9.68;42.88;100693.25;117264;1185;23089;-47
2022/05/03 01:38:20;;;;;;;9.30;4.90;;;;;;;9.70;42.94;100696.07;117309;1186;23547;-46
2022/05/03 01:41:19;;;;;;;6.00;4.70;;;;;;;9.72;43.01;100698.84;117297;1186;22322;-47
2022/05/03 01:43:52;;;;;;;6.70;5.10;;;;;;;9.72;42.94;100696.75;117321;1185;24178;-47
2022/05/03 01:46:24;;;;;;;7.40;4.50;;;;;;;9.65;42.85;100693.98;117235;1186;21900;-47
2022/05/03 01:52:11;;;;;;;6.30;4.60;;;;;;;9.46;42.76;100701.91;117247;1186;22927;-47
2022/05/03 01:54:52;;;;;;;7.50;4.50;;;;;;;9.34;42.76;100698.96;117073;1186;23445;-47
2022/05/03 01:57:45;;;;;;;7.60;5.10;;;;;;;9.26;42.83;100696.16;117395;1186;23531;-54
2022/05/03 02:00:13;;;;;;;7.10;4.90;;;;;;;9.19;42.93;100694.79;117317;1185;22650;-55
2022/05/03 02:03:03;;;;;;;8.40;5.10;;;;;;;9.19;43.09;100699.86;117294;1185;23465;-53
2022/05/03 02:05:40;;;;;;;6.20;4.40;;;;;;;9.22;43.13;100697.41;117304;1185;21852;-47
2022/05/03 02:08:10;;;;;;;6.80;5.10;;;;;;;9.28;43.38;100693.71;117292;1185;23568;-54
2022/05/03 02:11:01;;;;;;;7.40;4.70;;;;;;;9.32;43.30;100695.63;117084;1188;21921;-54
2022/05/03 02:17:02;;;;;;;6.60;5.10;;;;;;;9.32;43.28;100706.31;117310;1185;21891;-47
2022/05/03 02:19:44;;;;;;;7.20;5.30;;;;;;;9.33;43.48;100699.31;117067;1185;23484;-47
2022/05/03 02:22:50;;;;;;;8.70;5.40;;;;;;;9.35;43.43;100693.70;116931;1187;24210;-47
2022/05/03 02:25:46;;;;;;;6.60;5.10;;;;;;;9.35;43.45;100692.48;117284;1184;22612;-54
2022/05/03 02:28:26;;;;;;;7.80;5.00;;;;;;;9.38;43.56;100698.95;117331;1185;23470;-46
2022/05/03 02:30:54;;;;;;;6.80;5.10;;;;;;;9.46;43.68;100701.21;117118;1186;23506;-46
2022/05/03 02:33:27;;;;;;;8.80;5.00;;;;;;;9.51;43.63;100701.02;117133;1185;24166;-48
2022/05/03 02:35:57;;;;;;;7.50;5.50;;;;;;;9.51;43.61;100701.89;117029;1187;23546;-54
2022/05/03 02:38:36;;;;;;;10.70;5.40;;;;;;;9.51;43.66;100709.61;117302;1186;21871;-54
2022/05/03 02:41:05;;;;;;;11.10;6.20;;;;;;;9.54;43.71;100708.36;117081;1188;24153;-47
2022/05/03 02:43:34;;;;;;;7.70;6.00;;;;;;;9.58;43.83;100712.04;117127;1186;22060;-54
2022/05/03 02:46:38;;;;;;;10.60;7.30;;;;;;;9.63;43.92;100714.48;117320;1185;23013;-55
2022/05/03 02:49:12;;;;;;;9.50;7.20;;;;;;;9.73;44.03;100711.81;117263;1185;22630;-54
2022/05/03 02:52:13;;;;;;;9.10;6.00;;;;;;;9.82;44.09;100712.31;117123;1188;24159;-55
2022/05/03 02:55:11;;;;;;;14.50;6.20;;;;;;;9.92;44.20;100711.58;117265;1185;21869;-54
2022/05/03 02:58:00;;;;;;;8.90;5.60;;;;;;;10.02;44.22;100708.55;116959;1187;21871;-54
2022/05/03 03:03:21;;;;;;;11.30;5.40;;;;;;;10.11;44.13;100721.66;117036;1188;21852;-47
2022/05/03 03:05:53;;;;;;;12.70;6.60;;;;;;;10.12;44.01;100718.33;117044;1186;21846;-55
2022/05/03 03:08:24;;;;;;;9.90;6.00;;;;;;;10.16;44.26;100710.05;117253;1185;23551;-54
2022/05/03 03:10:51;;;;;;;14.80;5.20;;;;;;;10.21;44.35;100709.51;116981;1185;23830;-54
2022/05/03 03:13:39;;;;;;;10.40;5.60;;;;;;;10.28;44.25;100712.27;117183;1185;22616;-47
2022/05/03 03:16:07;;;;;;;7.00;5.10;;;;;;;10.31;44.17;100715.41;117261;1185;21861;-55
2022/05/03 03:18:36;;;;;;;8.60;5.60;;;;;;;10.30;44.21;100715.24;116906;1187;21861;-55
2022/05/03 03:21:06;;;;;;;8.40;6.30;;;;;;;10.27;44.20;100712.62;117281;1185;21845;-47
2022/05/03 03:23:35;;;;;;;6.60;5.30;;;;;;;10.25;44.28;100705.09;117079;1185;21849;-47
2022/05/03 03:26:04;;;;;;;9.20;5.90;;;;;;;10.25;44.22;100705.08;117271;1186;24237;-48
2022/05/03 03:28:32;;;;;;;8.30;5.50;;;;;;;10.28;44.36;100708.05;117131;1185;21941;-48
2022/05/03 03:31:00;;;;;;;8.50;6.00;;;;;;;10.34;44.45;100710.84;116975;1187;22812;-47
2022/05/03 03:33:32;;;;;;;8.90;6.30;;;;;;;10.41;44.44;100711.33;117092;1185;24220;-55
2022/05/03 03:36:03;;;;;;;8.90;6.80;;;;;;;10.48;44.61;100716.39;117048;1185;22096;-55
2022/05/03 03:38:38;;;;;;;8.00;5.90;;;;;;;10.53;44.48;100722.15;117300;1185;24160;-54
2022/05/03 03:41:06;;;;;;;7.50;6.10;;;;;;;10.56;44.63;100712.48;117325;1185;21847;-56
2022/05/03 03:43:34;;;;;;;14.20;6.70;;;;;;;10.63;44.82;100707.86;117339;1185;21959;-48
2022/05/03 03:46:02;;;;;;;13.00;6.00;;;;;;;10.74;44.87;100708.32;117321;1185;22178;-47
2022/05/03 03:48:31;;;;;;;17.20;6.40;;;;;;;10.86;44.79;100712.08;117391;1185;23445;-57
2022/05/03 03:50:59;;;;;;;19.50;6.20;;;;;;;10.98;45.05;100709.52;117310;1186;23480;-47
2022/05/03 03:53:28;;;;;;;18.20;7.00;;;;;;;11.10;44.90;100708.00;117150;1186;23738;-56
2022/05/03 03:55:57;;;;;;;9.90;5.90;;;;;;;11.22;45.03;100708.42;117280;1185;24158;-56
2022/05/03 03:58:25;;;;;;;10.10;6.00;;;;;;;11.32;45.12;100708.31;117116;1185;22925;-47
2022/05/03 04:00:54;;;;;;;9.30;6.60;;;;;;;11.39;45.05;100708.08;117074;1186;23436;-48
2022/05/03 04:03:23;;;;;;;15.10;6.50;;;;;;;11.46;44.91;100705.90;117324;1185;22612;-56
2022/05/03 04:05:51;;;;;;;14.60;6.70;;;;;;;11.54;45.09;100706.34;117294;1186;22721;-56
2022/05/03 04:08:20;;;;;;;15.70;6.80;;;;;;;11.61;45.10;100708.02;117332;1185;21899;-47
2022/05/03 04:10:49;;;;;;;16.50;5.90;;;;;;;11.69;44.99;100714.60;117266;1185;24158;-47
2022/05/03 04:13:17;;;;;;;16.80;6.00;;;;;;;11.78;45.08;100712.92;117466;1185;21941;-54
2022/05/03 04:15:46;;;;;;;13.20;6.30;;;;;;;11.87;45.25;100714.04;117294;1186;23472;-55
2022/05/03 04:18:14;;;;;;;9.30;6.60;;;;;;;11.98;45.39;100706.37;117051;1188;23521;-55
2022/05/03 04:20:42;;;;;;;9.10;6.50;;;;;;;12.08;45.32;100702.21;117311;1185;23438;-47
2022/05/03 04:23:20;;;;;;;8.80;6.30;;;;;;;12.19;45.18;100708.21;117348;1185;23659;-55
2022/05/03 04:25:48;;;;;;;10.10;6.20;;;;;;;12.30;45.29;100710.17;117134;1186;21863;-55
2022/05/03 04:28:16;;;;;;;9.20;6.00;;;;;;;12.42;45.23;100709.66;117284;1186;23455;-56
2022/05/03 04:30:44;;;;;;;7.50;5.60;;;;;;;12.52;45.37;100702.46;117287;1184;22353;-50
2022/05/03 04:33:12;;;;;;;9.20;5.90;;;;;;;12.63;45.29;100700.00;117348;1185;23546;-48
2022/05/03 04:35:44;;;;;;;7.80;6.10;;;;;;;12.76;45.59;100697.69;117238;1186;21924;-48
2022/05/03 04:38:12;;;;;;;9.40;6.70;;;;;;;12.89;45.71;100698.70;117097;1188;23447;-56
2022/05/03 04:40:41;;;;;;;12.60;6.20;;;;;;;13.04;45.67;100698.80;117310;1186;23480;-56
2022/05/03 04:43:10;;;;;;;10.30;6.00;;;;;;;13.20;45.67;100698.70;117444;1185;24148;-55
2022/05/03 04:45:39;;;;;;;;;;;;;;;13.37;45.77;100700.15;117106;1186;21962;-49
2022/05/03 04:48:08;;;;;;;9.50;5.90;;;;;;;13.53;45.80;100700.60;117130;1186;23477;-56
2022/05/03 04:50:37;;;;;;;7.60;5.90;;;;;;;13.65;45.67;100696.66;117377;1185;21850;-56
2022/05/03 04:53:05;;;;;;;7.60;5.60;;;;;;;13.77;45.54;100695.54;117243;1186;24188;-48
2022/05/03 04:55:39;;;;;;;7.60;5.30;;;;;;;13.88;45.67;100694.60;117303;1185;23522;-48
2022/05/03 04:58:08;;;;;;;8.90;5.90;;;;;;;14.02;45.68;100693.96;117318;1185;23550;-48
2022/05/03 05:00:37;;;;;;;8.10;6.20;;;;;;;14.15;45.85;100694.02;117432;1185;23666;-55
2022/05/03 05:03:06;;;;;;;6.80;4.80;;;;;;;14.28;45.74;100693.02;117374;1185;22980;-56
2022/05/03 05:05:34;;;;;;;5.10;4.40;;;;;;;14.41;45.77;100694.67;116998;1187;22813;-48
2022/05/03 05:08:05;;;;;;;9.70;5.20;;;;;;;14.51;45.56;100701.70;117032;1188;21897;-48
2022/05/03 05:10:34;;;;;;;7.40;5.90;;;;;;;14.59;45.59;100697.23;117079;1186;21895;-48
2022/05/03 05:13:03;;;;;;;10.20;6.80;;;;;;;14.69;45.68;100697.02;117029;1187;22636;-56
2022/05/03 05:15:37;;;;;;;11.40;7.10;;;;;;;14.84;45.80;100699.16;117178;1185;23480;-48
2022/05/03 05:18:06;;;;;;;9.70;7.00;;;;;;;15.00;45.84;100698.58;117212;1185;22989;-48
2022/05/03 05:20:34;;;;;;;6.70;5.80;;;;;;;15.18;45.91;100693.89;117386;1185;24165;-49
2022/05/03 05:23:03;;;;;;;5.10;3.90;;;;;;;15.33;45.91;100692.94;117275;1185;23570;-56
2022/05/03 05:25:48;;;;;;;8.40;4.60;;;;;;;15.48;45.79;100690.97;117258;1186;23573;-49
2022/05/03 05:28:18;;;;;;;8.30;6.20;;;;;;;15.61;45.88;100695.38;117258;1186;23598;-48
2022/05/03 05:30:46;;;;;;;7.70;4.50;;;;;;;15.77;45.87;100697.23;117306;1186;22925;-57
2022/05/03 05:33:17;;;;;;;6.80;4.50;;;;;;;15.91;45.88;100694.54;117223;1186;22638;-48
2022/05/03 05:35:46;;;;;;;;;;;;;;;16.02;45.70;100697.77;117083;1185;22925;-56
2022/05/03 05:38:18;;;;;;;7.00;4.70;;;;;;;16.13;45.75;100696.56;117196;1185;22160;-49
2022/05/03 05:40:52;;;;;;;6.70;4.30;;;;;;;16.24;45.66;100698.02;117066;1187;21864;-56
2022/05/03 05:43:23;;;;;;;6.60;4.10;;;;;;;16.34;45.73;100696.60;116944;1182;22094;-55
2022/05/03 05:45:52;;;;;;;6.30;4.30;;;;;;;16.47;45.72;100697.80;118068;1185;23576;-56
2022/05/03 05:48:21;;;;;;;5.80;3.60;;;;;;;16.61;45.70;100698.04;117266;1186;22019;-48
2022/05/03 05:50:49;;;;;;;9.70;4.10;;;;;;;16.76;45.65;100698.46;117283;1185;23566;-57
2022/05/03 05:53:33;;;;;;;7.40;3.80;;;;;;;16.84;45.45;100697.85;117353;1186;22326;-48
2022/05/03 05:56:04;;;;;;;4.80;3.50;;;;;;;16.93;45.41;100698.80;117035;1186;23586;-57
2022/05/03 05:58:34;;;;;;;7.50;3.90;;;;;;;17.08;45.65;100697.61;116987;1188;22931;-58
2022/05/03 06:01:02;;;;;;;5.30;3.00;;;;;;;17.24;45.44;100702.02;117062;1186;21944;-48
2022/05/03 06:03:31;;;;;;;6.70;3.40;;;;;;;17.43;45.68;100696.56;117026;1186;23553;-48
2022/05/03 06:05:59;;;;;;;6.30;3.70;;;;;;;17.66;45.66;100696.47;116916;1187;21850;-56
2022/05/03 06:08:28;;;;;;;9.00;3.20;;;;;;;17.94;45.81;100692.23;117026;1187;23673;-48
2022/05/03 06:10:58;;;;;;;9.00;2.90;;;;;;;18.17;45.46;100694.04;117093;1187;23575;-48
2022/05/03 06:13:26;;;;;;;3.40;2.50;;;;;;;18.25;45.10;100692.83;117019;1186;23551;-48
2022/05/03 06:15:55;;;;;;;4.80;2.30;;;;;;;18.35;44.96;100693.00;117017;1186;22928;-55
2022/05/03 06:18:23;;;;;;;5.00;2.10;;;;;;;18.44;44.79;100693.52;117166;1186;23446;-56
2022/05/03 06:20:51;;;;;;;4.10;1.60;;;;;;;18.53;44.70;100689.60;117058;1188;23465;-48
2022/05/03 06:23:20;;;;;;;4.80;1.70;;;;;;;18.62;44.47;100694.04;117017;1186;23437;-48
2022/05/03 06:25:49;;;;;;;2.00;1.30;;;;;;;18.65;44.21;100692.13;117046;1186;23907;-56
2022/05/03 06:28:18;;;;;;;4.60;1.80;;;;;;;18.65;43.97;100696.61;117003;1187;23005;-49
2022/05/03 06:30:46;;;;;;;3.40;1.80;;;;;;;18.68;43.98;100697.71;117013;1186;22654;-56
2022/05/03 06:33:15;;;;;;;5.20;1.90;;;;;;;18.74;43.93;100695.00;117008;1187;21860;-56
2022/05/03 06:35:44;;;;;;;3.10;1.50;;;;;;;18.77;43.71;100698.41;117014;1185;24224;-49
2022/05/03 06:38:12;;;;;;;3.10;1.80;;;;;;;18.75;43.60;100694.95;117039;1185;21857;-56
2022/05/03 06:40:41;;;;;;;4.70;1.70;;;;;;;18.73;43.44;100695.02;117211;1186;23012;-55
2022/05/03 06:43:09;;;;;;;5.40;1.70;;;;;;;18.76;43.46;100693.13;117077;1186;24148;-57
2022/05/03 06:45:38;;;;;;;6.70;1.70;;;;;;;18.82;43.47;100695.34;116980;1186;21899;-57
2022/05/03 06:48:09;;;;;;;5.20;2.20;;;;;;;18.85;43.32;100694.33;117014;1187;23474;-48
2022/05/03 06:50:37;;;;;;;2.30;1.20;;;;;;;18.90;43.41;100694.83;117019;1187;24150;-55
2022/05/03 06:53:06;;;;;;;3.90;1.40;;;;;;;19.04;43.48;100696.42;116970;1187;23445;-49
2022/05/03 06:55:34;;;;;;;4.20;1.10;;;;;;;19.21;43.50;100696.06;117285;1186;23474;-48
2022/05/03 06:58:03;;;;;;;2.10;1.20;;;;;;;19.46;43.51;100697.10;117341;1185;23451;-56
2022/05/03 07:00:32;;;;;;;5.40;1.30;;;;;;;19.71;43.25;100694.02;117112;1186;23472;-49
2022/05/03 07:03:00;;;;;;;12.70;1.60;;;;;;;19.78;42.88;100696.23;117284;1185;24163;-55
2022/05/03 07:05:30;;;;;;;2.20;1.10;;;;;;;19.80;42.50;100696.31;117445;1185;23577;-48
2022/05/03 07:07:59;;;;;;;2.20;1.50;;;;;;;19.80;42.58;100696.66;117387;1185;23439;-55
2022/05/03 07:10:27;;;;;;;2.50;1.20;;;;;;;19.88;42.54;100699.89;117353;1185;23560;-55
2022/05/03 07:12:56;;;;;;;2.70;1.20;;;;;;;19.95;42.32;100697.80;117315;1186;23576;-49
2022/05/03 07:15:25;;;;;;;3.60;1.70;;;;;;;19.99;42.21;100698.15;117501;1186;23547;-54
2022/05/03 07:23:27;;;;;;;2.50;1.50;;;;;;;20.02;41.68;100702.98;117387;1185;24152;-49
2022/05/03 07:25:55;;;;;;;3.20;1.60;;;;;;;19.98;41.42;100706.00;117392;1180;22922;-55
2022/05/03 07:28:24;;;;;;;2.70;1.40;;;;;;;19.91;41.43;100704.01;117302;1185;22613;-55
2022/05/03 07:30:52;;;;;;;3.10;1.30;;;;;;;19.93;41.53;100702.70;117060;1186;21861;-55
2022/05/03 07:33:23;;;;;;;3.70;1.90;;;;;;;20.00;41.50;100705.95;117320;1186;23295;-55
2022/05/03 07:35:54;;;;;;;20.80;3.30;;;;;;;20.03;41.44;100706.52;117109;1180;22925;-50
2022/05/03 07:38:22;;;;;;;5.00;2.20;;;;;;;20.07;41.34;100706.85;117012;1181;21901;-49
2022/05/03 07:40:50;;;;;;;2.80;1.40;;;;;;;20.03;40.94;100710.23;117296;1186;23736;-56
2022/05/03 07:43:19;;;;;;;7.90;1.50;;;;;;;19.97;40.25;100707.49;117120;1188;22788;-50
2022/05/03 07:45:47;;;;;;;3.90;1.60;;;;;;;19.85;40.20;100708.20;117075;1187;23544;-49
2022/05/03 07:48:15;;;;;;;5.20;1.90;;;;;;;19.81;40.43;100710.87;117280;1185;23676;-50
2022/05/03 07:50:44;;;;;;;3.60;2.00;;;;;;;19.86;40.16;100710.09;117294;1185;22645;-56
2022/05/03 07:53:13;;;;;;;2.20;1.30;;;;;;;19.92;40.39;100706.46;117054;1185;21872;-51
2022/05/03 07:55:44;;;;;;;2.50;1.60;;;;;;;20.03;40.25;100703.63;117062;1185;21876;-48
2022/05/03 07:58:13;;;;;;;3.50;1.60;;;;;;;20.19;40.51;100698.63;117028;1188;24236;-56
2022/05/03 08:00:42;;;;;;;5.80;1.80;;;;;;;20.45;40.34;100701.84;117310;1185;21852;-49
2022/05/03 08:03:13;;;;;;;6.60;2.10;;;;;;;20.72;40.19;100695.35;117082;1185;22794;-48
2022/05/03 08:05:41;;;;;;;;;;;;;;;20.91;40.33;100695.14;117283;1185;21841;-55
2022/05/03 08:08:13;;;;;;;2.90;1.60;;;;;;;21.18;40.45;100688.64;117430;1185;23469;-57
2022/05/03 08:10:45;;;;;;;2.70;1.70;;;;;;;21.53;40.49;100685.17;117098;1186;22102;-55
2022/05/03 08:13:15;;;;;;;3.70;1.50;;;;;;;21.95;40.68;100681.17;117300;1185;22612;-55
2022/05/03 08:15:44;;;;;;;3.30;1.70;;;;;;;22.38;40.65;100681.33;117363;1185;21859;-55
2022/05/03 08:18:14;;;;;;;;;;;;;;;22.77;40.63;100676.55;117139;1185;23456;-49
2022/05/03 08:20:42;;;;;;;3.40;1.30;;;;;;;23.24;40.54;100672.91;117105;1181;23446;-55
2022/05/03 08:23:11;;;;;;;4.80;1.80;;;;;;;23.55;40.44;100668.73;117408;1185;23550;-51
2022/05/03 08:25:39;;;;;;;3.60;1.10;;;;;;;23.77;40.08;100665.23;117345;1185;21912;-49
2022/05/03 08:28:10;;;;;;;3.50;1.80;;;;;;;23.96;39.79;100663.47;117254;1185;22648;-55
2022/05/03 08:30:42;;;;;;;2.70;1.60;;;;;;;24.11;39.85;100665.92;117155;1185;23077;-55
2022/05/03 08:33:13;;;;;;;4.00;1.60;;;;;;;24.26;39.80;100662.83;117095;1185;22935;-55
2022/05/03 08:35:41;;;;;;;5.10;1.80;;;;;;;24.48;39.97;100659.55;117054;1186;22886;-49
2022/05/03 08:43:45;;;;;;;4.00;2.00;;;;;;;24.63;38.67;100652.48;117175;1185;22717;-50
2022/05/03 08:46:13;;;;;;;3.80;2.00;;;;;;;24.46;38.63;100655.05;117074;1186;22925;-49
2022/05/03 08:48:42;;;;;;;6.30;2.30;;;;;;;24.28;38.43;100653.04;117015;1187;23563;-49
2022/05/03 08:51:11;;;;;;;5.50;1.60;;;;;;;24.16;38.40;100650.94;117470;1185;21854;-55
2022/05/03 08:53:40;;;;;;;7.20;2.00;;;;;;;24.23;38.38;100652.27;117429;1185;23703;-56
2022/05/03 08:56:08;;;;;;;4.80;1.90;;;;;;;24.21;38.04;100654.34;117053;1184;23015;-56
2022/05/03 08:58:38;;;;;;;6.00;2.00;;;;;;;23.97;37.34;100649.06;117108;1185;23640;-56
2022/05/03 09:01:06;;;;;;;5.40;1.90;;;;;;;23.69;37.55;100652.27;117403;1185;21889;-56
2022/05/03 09:03:37;;;;;;;6.80;1.70;;;;;;;23.67;37.87;100652.20;117087;1185;22835;-57
2022/05/03 09:06:06;;;;;;;8.40;1.60;;;;;;;23.93;38.11;100647.88;117400;1185;21996;-49
2022/05/03 09:08:34;;;;;;;5.50;1.80;;;;;;;24.08;37.50;100642.30;116891;1187;22531;-57
2022/05/03 09:11:15;;;;;;;3.50;1.70;;;;;;;23.96;37.08;100640.55;117476;1185;21894;-56
2022/05/03 09:13:44;;;;;;;8.50;2.60;;;;;;;23.80;37.15;100637.77;117305;1185;22884;-54
2022/05/03 09:16:18;;;;;;;7.70;2.10;;;;;;;23.74;37.28;100637.63;117368;1185;22931;-49
2022/05/03 09:18:47;;;;;;;4.00;1.60;;;;;;;23.82;37.50;100632.63;117313;1185;23554;-56
2022/05/03 09:24:13;;;;;;;3.50;1.70;;;;;;;23.84;37.10;100631.27;117364;1185;23576;-49
2022/05/03 09:26:42;;;;;;;4.90;1.60;;;;;;;23.71;37.22;100629.20;117049;1186;21842;-55
2022/05/03 09:29:11;;;;;;;3.10;1.60;;;;;;;23.66;37.14;100634.18;117313;1186;22812;-54
2022/05/03 09:31:46;;;;;;;6.60;1.70;;;;;;;23.51;36.89;100631.33;117404;1186;21850;-55
2022/05/03 09:34:27;;;;;;;50.10;29.60;;;;;;;23.36;36.81;100634.40;117357;1185;22886;-55
2022/05/03 09:37:00;;;;;;;12.10;6.60;;;;;;;23.11;36.52;100634.33;117078;1185;23595;-49
2022/05/03 09:39:41;;;;;;;5.90;3.00;;;;;;;22.88;36.44;100630.34;117152;1182;21974;-55
2022/05/03 09:42:13;;;;;;;2.80;1.50;;;;;;;22.74;36.31;100633.60;117303;1185;23550;-49
2022/05/03 09:44:58;;;;;;;5.40;1.40;;;;;;;22.65;36.32;100626.67;117361;1182;22652;-54
2022/05/03 09:47:29;;;;;;;14.40;7.50;;;;;;;22.66;36.49;100623.91;117370;1185;22209;-56
2022/05/03 09:49:57;;;;;;;5.40;3.10;;;;;;;22.73;36.47;100619.39;117056;1187;23645;-49
2022/05/03 09:52:30;;;;;;;5.90;2.10;;;;;;;22.91;36.71;100615.45;117290;1185;23630;-51
2022/05/03 09:55:04;;;;;;;2.90;2.00;;;;;;;23.21;37.01;100613.28;117328;1185;21839;-49
2022/05/03 09:57:37;;;;;;;5.80;1.70;;;;;;;23.55;36.98;100607.67;117014;1186;22932;-56
2022/05/03 10:00:07;;;;;;;4.60;1.80;;;;;;;23.80;36.75;100600.71;117075;1186;21866;-57
2022/05/03 10:02:42;;;;;;;3.70;1.90;;;;;;;23.96;36.36;100601.14;117293;1185;23551;-57
2022/05/03 10:05:16;;;;;;;5.70;3.00;;;;;;;24.09;36.29;100596.19;117076;1186;21856;-57
2022/05/03 10:07:50;;;;;;;3.20;1.70;;;;;;;24.41;36.59;100590.95;117317;1185;23657;-57
2022/05/03 10:10:18;;;;;;;3.20;1.60;;;;;;;24.95;36.82;100586.27;117293;1188;21894;-57
2022/05/03 10:12:47;;;;;;;3.60;1.40;;;;;;;25.46;37.05;100582.35;117364;1181;21850;-56
2022/05/03 10:20:35;;;;;;;4.90;1.60;;;;;;;26.03;37.25;100577.55;117312;1185;22946;-51
2022/05/03 10:21:02;;;;;;;6.30;3.00;;;;;;;27.11;36.61;100570.84;117122;1185;23540;-57
2022/05/03 10:23:32;;;;;;;;;;;;;;;27.29;36.67;100566.37;117306;1185;22752;-50
2022/05/03 10:26:05;;;;;;;4.50;2.00;;;;;;;27.60;36.50;100559.61;117268;1185;23370;-56
2022/05/03 10:29:09;;;;;;;6.60;2.20;;;;;;;27.62;35.65;100555.10;117410;1185;23576;-50
2022/05/03 10:32:05;;;;;;;4.70;2.30;;;;;;;27.32;35.44;100551.69;117366;1186;23650;-55
2022/05/03 10:34:54;;;;;;;4.20;2.00;;;;;;;27.13;35.21;100552.49;117362;1186;23551;-57
2022/05/03 10:37:35;;;;;;;4.10;1.90;;;;;;;26.96;35.40;100548.41;117323;1185;21853;-51
2022/05/03 10:40:12;;;;;;;7.60;2.30;;;;;;;27.07;35.67;100545.91;117331;1182;23579;-56
2022/05/03 10:42:41;;;;;;;6.20;2.20;;;;;;;27.39;35.69;100542.86;117059;1185;21850;-51
2022/05/03 10:45:13;;;;;;;2.80;1.80;;;;;;;27.47;35.39;100538.48;117156;1186;21852;-51
2022/05/03 10:47:53;;;;;;;6.80;2.80;;;;;;;27.35;35.14;100538.16;117067;1186;23555;-51
2022/05/03 10:50:22;;;;;;;3.50;2.20;;;;;;;27.35;35.42;100532.38;117296;1186;21846;-51
2022/05/03 10:52:54;;;;;;;3.80;1.80;;;;;;;27.55;35.64;100525.59;117307;1185;21893;-52
2022/05/03 10:55:23;;;;;;;4.80;2.00;;;;;;;27.81;35.71;100522.94;117297;1185;23595;-53
2022/05/03 10:58:30;;;;;;;5.80;2.10;;;;;;;28.06;35.65;100530.20;117033;1187;22619;-57
2022/05/03 11:01:11;;;;;;;5.00;3.10;;;;;;;28.11;35.19;100532.38;117340;1182;23548;-56
2022/05/03 11:03:41;;;;;;;5.50;2.40;;;;;;;27.74;34.76;100536.47;117299;1186;23563;-51
2022/05/03 11:06:17;;;;;;;7.40;2.80;;;;;;;27.36;34.61;100533.02;117259;1186;22925;-57
2022/05/03 11:08:57;;;;;;;5.00;1.80;;;;;;;27.27;34.83;100537.16;117315;1185;21840;-57
2022/05/03 11:11:35;;;;;;;5.90;2.70;;;;;;;27.05;34.37;100540.50;117335;1185;21958;-50
2022/05/03 11:14:05;;;;;;;5.80;2.10;;;;;;;26.71;34.27;100540.23;117349;1185;23551;-55
2022/05/03 11:16:37;;;;;;;5.60;1.90;;;;;;;26.49;34.23;100535.11;117333;1185;22305;-56
2022/05/03 11:19:10;;;;;;;16.00;3.10;;;;;;;26.29;33.53;100535.17;117418;1185;23550;-52
2022/05/03 11:21:39;;;;;;;7.20;2.50;;;;;;;26.00;33.69;100534.61;117367;1185;22802;-50
2022/05/03 11:24:23;;;;;;;5.20;2.40;;;;;;;25.74;33.72;100535.42;117432;1185;21855;-56
2022/05/03 11:26:53;;;;;;;5.10;2.10;;;;;;;25.40;33.63;100532.54;117323;1185;22910;-56
2022/05/03 11:29:27;;;;;;;5.90;2.70;;;;;;;25.01;33.55;100529.31;117354;1185;21861;-55
2022/05/03 11:31:55;;;;;;;4.00;2.30;;;;;;;24.78;33.78;100527.73;117093;1185;23496;-50
2022/05/03 11:34:23;;;;;;;16.70;3.30;;;;;;;24.69;33.89;100525.64;117103;1186;22317;-50
2022/05/03 11:36:52;;;;;;;6.40;1.70;;;;;;;24.64;33.60;100524.17;119093;1186;22108;-57
2022/05/03 11:39:22;;;;;;;3.90;1.50;;;;;;;24.33;32.95;100524.11;118228;1185;21853;-50
2022/05/03 11:41:50;;;;;;;4.10;1.50;;;;;;;23.89;33.10;100526.27;117351;1180;22927;-49
2022/05/03 11:44:19;;;;;;;5.10;1.70;;;;;;;23.54;33.10;100526.75;117097;1185;23305;-50
2022/05/03 11:46:48;;;;;;;2.40;1.30;;;;;;;23.21;33.10;100519.66;117350;1185;23595;-50
2022/05/03 11:49:17;;;;;;;3.20;1.70;;;;;;;23.04;33.22;100526.27;117240;1186;23001;-51
2022/05/03 11:57:24;;;;;;;5.20;1.90;;;;;;;23.79;33.91;100502.75;117374;1185;21888;-56
2022/05/03 11:59:55;;;;;;;3.20;2.20;;;;;;;23.98;33.63;100503.16;117370;1185;23676;-56
2022/05/03 12:02:36;;;;;;;4.90;2.40;;;;;;;24.13;33.50;100502.14;117080;1185;23459;-49
2022/05/03 12:05:05;;;;;;;4.00;2.00;;;;;;;24.23;33.41;100499.30;117296;1185;21861;-55
2022/05/03 12:07:44;;;;;;;3.30;2.10;;;;;;;24.19;33.32;100496.20;117294;1185;21858;-56
2022/05/03 12:10:33;;;;;;;8.90;2.20;;;;;;;24.03;33.34;100495.27;117259;1186;21850;-50
2022/05/03 12:13:05;;;;;;;6.20;1.70;;;;;;;23.90;33.26;100490.95;117148;1186;21893;-49
2022/05/03 12:15:37;;;;;;;6.50;1.80;;;;;;;23.81;33.19;100488.67;117333;1185;24200;-49
2022/05/03 12:18:09;;;;;;;3.70;1.80;;;;;;;23.65;33.33;100486.64;117062;1186;24163;-49